Time;durP1;ratioP1;P1;durP2;ratioP2;P2;SDS_P1;SDS_P2;PMS_P1;PMS_P2;Temp;Humidity;BMP_temperature;BMP_pressure;BME280_temperature;BME280_humidity;BME280_pressure;Samples;Min_cycle;Max_cycle;Signal;HPM_P1;HPM_P2
2022/12/16 00:01:59;;;;;;;62.00;32.42;;;;;;;-3.41;93.83;100949.22;5023650;28;20022;-69
2022/12/16 00:04:25;;;;;;;56.15;30.05;;;;;;;-3.38;93.59;100943.47;5023272;28;20040;-69
2022/12/16 00:06:50;;;;;;;61.72;31.80;;;;;;;-3.36;93.35;100945.41;5013708;28;20276;-69
2022/12/16 00:09:15;;;;;;;58.92;31.13;;;;;;;-3.31;93.55;100943.22;5013886;28;20038;-69
2022/12/16 00:11:41;;;;;;;62.88;30.80;;;;;;;-3.29;93.42;100944.22;5013365;28;20261;-69
2022/12/16 00:14:06;;;;;;;64.00;31.63;;;;;;;-3.25;93.58;100941.16;5013318;28;20100;-69
2022/12/16 00:16:31;;;;;;;59.70;31.40;;;;;;;-3.20;93.56;100949.16;5013248;28;20024;-69
2022/12/16 00:18:57;;;;;;;56.85;30.35;;;;;;;-3.16;93.44;100954.66;5023371;28;20275;-69
2022/12/16 00:21:27;;;;;;;62.70;31.25;;;;;;;-3.11;93.11;100943.91;5023204;28;20029;-69
2022/12/16 00:23:53;;;;;;;57.17;29.50;;;;;;;-3.09;93.33;100943.25;5023498;28;20128;-69
2022/12/16 00:26:18;;;;;;;61.03;31.15;;;;;;;-3.07;93.42;100936.66;5023385;28;20132;-69
2022/12/16 00:28:43;;;;;;;60.20;30.98;;;;;;;-3.03;93.32;100936.09;5023491;28;20030;-69
2022/12/16 00:31:09;;;;;;;59.20;30.45;;;;;;;-2.99;93.42;100939.78;5023338;28;20146;-69
2022/12/16 00:33:34;;;;;;;58.28;30.52;;;;;;;-2.95;93.21;100930.72;5023309;28;20022;-69
2022/12/16 00:35:59;;;;;;;57.08;30.73;;;;;;;-2.93;92.80;100931.75;5023326;28;20267;-69
2022/12/16 00:38:26;;;;;;;56.83;29.90;;;;;;;-2.92;92.73;100936.97;5023277;28;20085;-69
2022/12/16 00:40:51;;;;;;;58.13;31.00;;;;;;;-2.89;93.34;100946.53;5023213;28;20264;-69
2022/12/16 00:43:17;;;;;;;58.28;30.33;;;;;;;-2.87;93.41;100934.78;5023165;28;20063;-69
2022/12/16 00:45:42;;;;;;;61.00;31.08;;;;;;;-2.83;93.25;100936.78;5023086;28;20311;-69
2022/12/16 00:48:07;;;;;;;54.72;29.10;;;;;;;-2.81;93.14;100937.78;5025538;28;20020;-69
2022/12/16 00:50:33;;;;;;;55.17;28.88;;;;;;;-2.78;93.54;100934.59;5026763;28;20320;-69
2022/12/16 00:52:59;;;;;;;54.75;28.52;;;;;;;-2.74;93.34;100946.81;5021343;28;20054;-68
2022/12/16 00:55:24;;;;;;;61.50;28.90;;;;;;;-2.72;93.47;100935.97;5016443;28;20172;-69
2022/12/16 00:57:50;;;;;;;55.53;30.48;;;;;;;-2.70;93.38;100942.09;5016099;28;20030;-68
2022/12/16 01:00:17;;;;;;;58.50;29.00;;;;;;;-2.67;93.29;100944.00;5016243;28;20037;-69
2022/12/16 01:02:44;;;;;;;57.53;29.70;;;;;;;-2.67;93.87;100952.50;5016575;28;20020;-69
2022/12/16 01:05:12;;;;;;;58.08;28.15;;;;;;;-2.64;94.16;100945.13;5016438;28;20033;-68
2022/12/16 01:07:37;;;;;;;51.53;28.48;;;;;;;-2.62;93.77;100948.69;5016506;28;20030;-68
2022/12/16 01:10:05;;;;;;;54.42;29.90;;;;;;;-2.58;94.34;100948.91;5021372;28;20026;-69
2022/12/16 01:12:30;;;;;;;52.15;29.10;;;;;;;-2.55;94.17;100952.63;5026780;28;20021;-68
2022/12/16 01:14:56;;;;;;;58.58;30.02;;;;;;;-2.52;94.13;100959.59;5026356;28;20048;-69
2022/12/16 01:17:21;;;;;;;52.00;28.42;;;;;;;-2.50;94.00;100963.16;5016966;28;20026;-68
2022/12/16 01:19:46;;;;;;;59.40;31.50;;;;;;;-2.49;94.56;100970.03;5016797;28;20093;-68
2022/12/16 01:22:12;;;;;;;54.92;29.17;;;;;;;-2.47;95.10;100969.38;5015400;28;20033;-68
2022/12/16 01:24:38;;;;;;;51.67;28.33;;;;;;;-2.45;94.64;100970.41;5016159;28;20026;-69
2022/12/16 01:27:03;;;;;;;55.00;29.40;;;;;;;-2.44;94.61;100976.38;5015755;28;20335;-68
2022/12/16 01:29:29;;;;;;;55.50;28.60;;;;;;;-2.40;94.62;100974.94;5014504;28;20049;-68
2022/12/16 01:31:54;;;;;;;51.53;29.30;;;;;;;-2.38;94.20;100975.97;5025870;28;20045;-69
2022/12/16 01:34:19;;;;;;;56.28;29.90;;;;;;;-2.36;94.09;100980.44;5024631;28;20093;-68
2022/12/16 01:36:44;;;;;;;53.50;28.30;;;;;;;-2.35;94.02;100982.19;5025769;28;20025;-68
2022/12/16 01:39:10;;;;;;;50.83;29.08;;;;;;;-2.33;94.04;100988.31;5025806;28;20261;-68
2022/12/16 01:41:36;;;;;;;53.25;29.00;;;;;;;-2.32;94.37;100985.00;5025680;28;20252;-69
2022/12/16 01:44:20;;;;;;;55.10;29.95;;;;;;;-2.29;94.14;100982.69;5024611;28;20081;-68
2022/12/16 01:46:50;;;;;;;54.83;28.85;;;;;;;-2.27;94.44;100987.91;5025756;28;20025;-68
2022/12/16 01:49:26;;;;;;;53.67;28.40;;;;;;;-2.26;94.57;101002.44;5016822;28;20368;-68
2022/12/16 01:51:54;;;;;;;55.42;29.08;;;;;;;-2.28;94.63;101009.97;5018618;28;20017;-68
2022/12/16 01:54:26;;;;;;;52.70;28.67;;;;;;;-2.27;95.00;101001.56;5020335;28;20080;-69
2022/12/16 01:56:59;;;;;;;54.85;29.77;;;;;;;-2.24;95.06;101000.03;5025593;28;20107;-68
2022/12/16 01:59:27;;;;;;;58.47;30.75;;;;;;;-2.25;94.98;101014.44;5024365;28;20014;-68
2022/12/16 02:01:53;;;;;;;57.40;31.15;;;;;;;-2.22;95.25;101006.13;5025530;28;20032;-68
2022/12/16 02:04:19;;;;;;;57.13;30.88;;;;;;;-2.22;94.98;101007.00;5025299;28;20022;-69
2022/12/16 02:06:44;;;;;;;57.28;31.00;;;;;;;-2.22;95.11;101012.09;5024220;28;20032;-68
2022/12/16 02:09:11;;;;;;;62.47;30.70;;;;;;;-2.21;94.94;101015.56;5025069;28;20029;-68
2022/12/16 02:12:00;;;;;;;61.78;30.52;;;;;;;-2.20;94.79;101012.22;5025137;28;20037;-69
2022/12/16 02:14:42;;;;;;;58.63;30.77;;;;;;;-2.18;94.83;101020.91;5023897;28;20025;-68
2022/12/16 02:17:19;;;;;;;53.05;29.98;;;;;;;-2.18;94.03;101015.81;5025148;28;20270;-68
2022/12/16 02:20:08;;;;;;;60.13;29.58;;;;;;;-2.17;94.58;101015.91;5025206;28;20016;-68
2022/12/16 02:23:03;;;;;;;55.28;29.40;;;;;;;-2.15;94.71;101032.22;5024967;28;20029;-68
2022/12/16 02:26:04;;;;;;;55.88;31.00;;;;;;;-2.12;94.42;101023.94;5023885;28;20018;-68
2022/12/16 02:29:08;;;;;;;52.78;29.98;;;;;;;-2.11;94.82;101033.38;5027419;28;20089;-69
2022/12/16 02:32:06;;;;;;;56.38;30.77;;;;;;;-2.10;94.81;101033.50;5013998;28;20034;-69
2022/12/16 02:35:02;;;;;;;64.03;30.85;;;;;;;-2.11;94.27;101026.59;4956995;28;20045;-68
2022/12/16 02:37:43;;;;;;;58.40;29.60;;;;;;;-2.11;94.01;101031.69;5014897;28;20125;-68
2022/12/16 02:40:21;;;;;;;56.30;30.83;;;;;;;-2.10;93.73;101037.69;5014839;28;20036;-68
2022/12/16 02:42:52;;;;;;;61.28;30.65;;;;;;;-2.12;94.00;101039.25;5014560;28;20038;-69
2022/12/16 02:45:24;;;;;;;57.47;30.73;;;;;;;-2.13;93.35;101034.91;5022140;28;20041;-69
2022/12/16 02:47:49;;;;;;;61.38;32.30;;;;;;;-2.16;93.28;101038.13;5024453;28;20026;-68
2022/12/16 02:50:29;;;;;;;59.95;32.08;;;;;;;-2.16;93.80;101037.22;5024357;28;20024;-68
2022/12/16 02:52:55;;;;;;;60.08;31.88;;;;;;;-2.16;93.86;101037.22;5024431;28;20033;-68
2022/12/16 02:55:31;;;;;;;59.55;32.95;;;;;;;-2.15;93.64;101041.56;5024172;28;20413;-68
2022/12/16 02:58:14;;;;;;;61.97;31.30;;;;;;;-2.15;93.66;101041.56;5024451;28;20026;-68
2022/12/16 03:00:58;;;;;;;56.80;30.85;;;;;;;-2.15;93.86;101044.13;5024457;28;20018;-68
2022/12/16 03:03:29;;;;;;;64.53;32.03;;;;;;;-2.16;93.97;101038.13;5024172;28;20449;-69
2022/12/16 03:05:56;;;;;;;59.10;31.52;;;;;;;-2.15;93.57;101039.00;5024233;28;20068;-68
2022/12/16 03:08:27;;;;;;;63.10;32.35;;;;;;;-2.16;93.83;101044.88;5024032;28;20017;-68
2022/12/16 03:10:59;;;;;;;57.85;31.52;;;;;;;-2.16;93.61;101037.22;5023858;28;20021;-68
2022/12/16 03:13:28;;;;;;;62.97;32.10;;;;;;;-2.14;93.59;101043.34;5024222;28;20013;-68
2022/12/16 03:15:57;;;;;;;61.38;32.55;;;;;;;-2.11;94.04;101048.69;5024652;28;20022;-68
2022/12/16 03:18:23;;;;;;;60.83;33.40;;;;;;;-2.10;94.54;101048.81;5023932;28;20017;-68
2022/12/16 03:21:05;;;;;;;67.20;34.25;;;;;;;-2.11;94.42;101047.03;5024323;28;20041;-68
2022/12/16 03:23:47;;;;;;;65.65;34.83;;;;;;;-2.12;95.03;101060.53;5014120;28;20045;-69
2022/12/16 03:26:20;;;;;;;64.22;34.30;;;;;;;-2.13;95.53;101052.78;5020284;28;20199;-68
2022/12/16 03:28:51;;;;;;;70.45;34.70;;;;;;;-2.13;95.40;101057.88;5023829;28;20022;-68
2022/12/16 03:31:26;;;;;;;64.95;35.17;;;;;;;-2.13;95.71;101061.34;5023700;28;20024;-68
2022/12/16 03:34:09;;;;;;;63.20;33.45;;;;;;;-2.13;95.48;101056.22;5024043;28;20033;-68
2022/12/16 03:36:37;;;;;;;72.85;35.03;;;;;;;-2.14;95.62;101057.00;5023917;28;20182;-69
2022/12/16 03:39:04;;;;;;;70.32;35.10;;;;;;;-2.14;95.42;101056.13;5023840;28;20025;-68
2022/12/16 03:41:32;;;;;;;67.57;33.83;;;;;;;-2.15;95.92;101060.31;5023770;28;20017;-69
2022/12/16 03:43:57;;;;;;;64.45;33.67;;;;;;;-2.13;96.03;101062.97;5023875;28;20026;-68
2022/12/16 03:46:22;;;;;;;76.03;37.08;;;;;;;-2.12;96.25;101067.31;5014751;28;20033;-69
2022/12/16 03:48:49;;;;;;;70.03;34.45;;;;;;;-2.11;96.05;101066.56;5023422;28;20077;-68
2022/12/16 03:51:15;;;;;;;70.63;35.97;;;;;;;-2.09;96.83;101075.22;5023456;28;20080;-69
2022/12/16 03:53:41;;;;;;;72.43;35.13;;;;;;;-2.08;96.48;101077.00;5023435;28;20022;-68
2022/12/16 03:56:06;;;;;;;73.80;36.15;;;;;;;-2.07;97.27;101076.25;5023761;28;20048;-68
2022/12/16 03:58:34;;;;;;;73.38;35.15;;;;;;;-2.06;97.33;101085.66;5023874;28;20081;-69
2022/12/16 04:00:59;;;;;;;71.88;36.50;;;;;;;-2.05;97.14;101084.91;5023582;28;20084;-68
2022/12/16 04:03:24;;;;;;;70.70;35.13;;;;;;;-2.04;97.48;101086.69;5023581;28;20058;-69
2022/12/16 04:05:50;;;;;;;71.57;35.60;;;;;;;-2.01;97.48;101089.47;5023611;28;20041;-68
2022/12/16 04:08:15;;;;;;;67.57;35.22;;;;;;;-1.99;97.28;101087.94;5023439;28;20018;-68
2022/12/16 04:24:29;;;;;;;68.45;33.80;;;;;;;-1.87;97.56;101104.97;5027171;28;20072;-69
2022/12/16 04:30:17;;;;;;;71.13;35.13;;;;;;;-1.83;97.67;101110.44;5026987;28;20085;-68
2022/12/16 04:32:23;;;;;;;67.43;33.75;;;;;;;-1.82;97.69;101114.78;5026863;28;20041;-69
2022/12/16 04:34:50;;;;;;;78.82;34.35;;;;;;;-1.80;98.36;101120.88;5027265;28;20045;-68
